sensor_id;sensor_type;location;lat;lon;timestamp;pressure;altitude;pressure_sealevel;temperature;humidity
21742;BME280;11033;47.490;11.116;2022-12-11T00:00:40;92154.91;;;-1.50;89.02
21742;BME280;11033;47.490;11.116;2022-12-11T00:03:06;92154.75;;;-1.48;89.57
21742;BME280;11033;47.490;11.116;2022-12-11T00:05:31;92156.72;;;-1.60;89.20
21742;BME280;11033;47.490;11.116;2022-12-11T00:07:57;92155.56;;;-1.48;89.40
21742;BME280;11033;47.490;11.116;2022-12-11T00:10:23;92157.88;;;-1.45;88.88
21742;BME280;11033;47.490;11.116;2022-12-11T00:12:48;92155.38;;;-1.64;88.70
21742;BME280;11033;47.490;11.116;2022-12-11T00:15:13;92153.94;;;-1.49;88.53
21742;BME280;11033;47.490;11.116;2022-12-11T00:17:39;92152.91;;;-1.56;89.24
21742;BME280;11033;47.490;11.116;2022-12-11T00:20:04;92161.31;;;-1.54;89.11
21742;BME280;11033;47.490;11.116;2022-12-11T00:22:30;92158.50;;;-1.61;90.02
21742;BME280;11033;47.490;11.116;2022-12-11T00:24:55;92155.47;;;-1.56;89.72
21742;BME280;11033;47.490;11.116;2022-12-11T00:27:21;92145.88;;;-1.64;89.18
21742;BME280;11033;47.490;11.116;2022-12-11T00:29:46;92149.88;;;-1.51;88.89
21742;BME280;11033;47.490;11.116;2022-12-11T00:32:11;92146.41;;;-1.60;88.51
21742;BME280;11033;47.490;11.116;2022-12-11T00:34:37;92143.25;;;-1.54;89.08
21742;BME280;11033;47.490;11.116;2022-12-11T00:37:02;92150.69;;;-1.51;88.74
21742;BME280;11033;47.490;11.116;2022-12-11T00:39:27;92154.25;;;-1.52;89.16
21742;BME280;11033;47.490;11.116;2022-12-11T00:41:53;92158.06;;;-1.56;88.88
21742;BME280;11033;47.490;11.116;2022-12-11T00:44:18;92154.25;;;-1.52;88.94
21742;BME280;11033;47.490;11.116;2022-12-11T00:46:43;92157.63;;;-1.51;88.84
21742;BME280;11033;47.490;11.116;2022-12-11T00:49:10;92153.84;;;-1.57;89.04
21742;BME280;11033;47.490;11.116;2022-12-11T00:51:35;92156.06;;;-1.62;88.40
21742;BME280;11033;47.490;11.116;2022-12-11T00:54:02;92150.88;;;-1.62;88.32
21742;BME280;11033;47.490;11.116;2022-12-11T00:56:27;92156.56;;;-1.58;88.19
21742;BME280;11033;47.490;11.116;2022-12-11T00:58:53;92159.69;;;-1.55;87.76
21742;BME280;11033;47.490;11.116;2022-12-11T01:01:21;92165.09;;;-1.48;87.11
21742;BME280;11033;47.490;11.116;2022-12-11T01:03:47;92170.59;;;-1.61;87.32
21742;BME280;11033;47.490;11.116;2022-12-11T01:06:18;92180.88;;;-1.51;87.21
21742;BME280;11033;47.490;11.116;2022-12-11T01:08:45;92164.56;;;-1.52;87.62
21742;BME280;11033;47.490;11.116;2022-12-11T01:11:13;92169.19;;;-1.55;87.42
21742;BME280;11033;47.490;11.116;2022-12-11T01:13:40;92177.41;;;-1.70;87.54
21742;BME280;11033;47.490;11.116;2022-12-11T01:16:11;92171.63;;;-1.54;87.38
21742;BME280;11033;47.490;11.116;2022-12-11T01:18:37;92168.72;;;-1.69;87.87
21742;BME280;11033;47.490;11.116;2022-12-11T01:21:07;92179.84;;;-1.68;88.34
21742;BME280;11033;47.490;11.116;2022-12-11T01:23:33;92182.97;;;-1.65;87.97
21742;BME280;11033;47.490;11.116;2022-12-11T01:26:14;92181.19;;;-1.64;87.60
21742;BME280;11033;47.490;11.116;2022-12-11T01:28:41;92181.50;;;-1.77;88.37
21742;BME280;11033;47.490;11.116;2022-12-11T01:31:08;92176.63;;;-1.80;88.37
21742;BME280;11033;47.490;11.116;2022-12-11T01:33:33;92183.66;;;-1.72;88.63
21742;BME280;11033;47.490;11.116;2022-12-11T01:35:59;92183.09;;;-1.66;88.25
21742;BME280;11033;47.490;11.116;2022-12-11T01:38:24;92179.19;;;-1.70;87.95
21742;BME280;11033;47.490;11.116;2022-12-11T01:40:50;92183.44;;;-1.88;89.15
21742;BME280;11033;47.490;11.116;2022-12-11T01:43:15;92184.34;;;-1.70;88.67
21742;BME280;11033;47.490;11.116;2022-12-11T01:45:43;92182.03;;;-1.73;88.17
21742;BME280;11033;47.490;11.116;2022-12-11T01:48:29;92191.84;;;-1.77;87.97
21742;BME280;11033;47.490;11.116;2022-12-11T01:51:01;92188.81;;;-1.72;88.17
21742;BME280;11033;47.490;11.116;2022-12-11T01:53:40;92188.81;;;-1.72;87.64
21742;BME280;11033;47.490;11.116;2022-12-11T01:56:08;92186.00;;;-1.79;87.60
21742;BME280;11033;47.490;11.116;2022-12-11T01:58:40;92184.41;;;-1.89;87.74
21742;BME280;11033;47.490;11.116;2022-12-11T02:01:10;92190.06;;;-1.76;87.58
21742;BME280;11033;47.490;11.116;2022-12-11T02:03:38;92182.03;;;-1.73;87.45
21742;BME280;11033;47.490;11.116;2022-12-11T02:06:04;92177.84;;;-1.74;87.61
21742;BME280;11033;47.490;11.116;2022-12-11T02:08:29;92174.06;;;-1.80;87.92
21742;BME280;11033;47.490;11.116;2022-12-11T02:14:04;92181.53;;;-1.86;88.38
21742;BME280;11033;47.490;11.116;2022-12-11T02:17:12;92178.53;;;-1.82;88.46
21742;BME280;11033;47.490;11.116;2022-12-11T02:25:19;92179.91;;;-1.87;88.02
21742;BME280;11033;47.490;11.116;2022-12-11T02:27:52;92182.88;;;-1.82;88.05
21742;BME280;11033;47.490;11.116;2022-12-11T02:30:22;92183.16;;;-1.85;87.77
21742;BME280;11033;47.490;11.116;2022-12-11T02:32:55;92187.78;;;-1.99;87.75
21742;BME280;11033;47.490;11.116;2022-12-11T02:35:25;92193.09;;;-1.90;87.93
21742;BME280;11033;47.490;11.116;2022-12-11T02:37:58;92189.69;;;-1.81;87.44
21742;BME280;11033;47.490;11.116;2022-12-11T02:40:29;92186.94;;;-1.80;87.46
21742;BME280;11033;47.490;11.116;2022-12-11T02:42:57;92180.72;;;-1.87;87.75
21742;BME280;11033;47.490;11.116;2022-12-11T02:45:25;92187.28;;;-1.93;87.66
21742;BME280;11033;47.490;11.116;2022-12-11T02:47:51;92192.69;;;-1.96;87.85
21742;BME280;11033;47.490;11.116;2022-12-11T02:50:19;92179.78;;;-1.96;87.92
21742;BME280;11033;47.490;11.116;2022-12-11T02:52:47;92183.44;;;-1.88;88.05
21742;BME280;11033;47.490;11.116;2022-12-11T02:55:15;92185.88;;;-1.97;87.79
21742;BME280;11033;47.490;11.116;2022-12-11T02:57:44;92190.69;;;-2.11;88.41
21742;BME280;11033;47.490;11.116;2022-12-11T03:00:12;92185.09;;;-2.07;88.32
21742;BME280;11033;47.490;11.116;2022-12-11T03:02:38;92188.63;;;-2.08;87.68
21742;BME280;11033;47.490;11.116;2022-12-11T03:05:04;92195.41;;;-2.07;88.22
21742;BME280;11033;47.490;11.116;2022-12-11T03:07:36;92185.63;;;-1.94;87.17
21742;BME280;11033;47.490;11.116;2022-12-11T03:10:04;92184.41;;;-1.89;86.97
21742;BME280;11033;47.490;11.116;2022-12-11T03:12:35;92183.06;;;-1.94;87.16
21742;BME280;11033;47.490;11.116;2022-12-11T03:15:04;92184.16;;;-2.06;86.83
21742;BME280;11033;47.490;11.116;2022-12-11T03:17:39;92199.47;;;-2.04;87.59
21742;BME280;11033;47.490;11.116;2022-12-11T03:20:21;92189.19;;;-2.14;86.90
21742;BME280;11033;47.490;11.116;2022-12-11T03:22:56;92188.91;;;-2.11;87.17
21742;BME280;11033;47.490;11.116;2022-12-11T03:25:34;92189.97;;;-2.04;87.58
21742;BME280;11033;47.490;11.116;2022-12-11T03:28:10;92199.50;;;-1.95;87.09
21742;BME280;11033;47.490;11.116;2022-12-11T03:30:38;92198.13;;;-1.99;86.97
21742;BME280;11033;47.490;11.116;2022-12-11T03:33:08;92193.22;;;-2.02;86.97
21742;BME280;11033;47.490;11.116;2022-12-11T03:35:48;92202.47;;;-2.09;87.33
21742;BME280;11033;47.490;11.116;2022-12-11T03:38:30;92206.53;;;-1.97;86.72
21742;BME280;11033;47.490;11.116;2022-12-11T03:40:59;92209.94;;;-2.06;86.66
21742;BME280;11033;47.490;11.116;2022-12-11T03:43:27;92206.00;;;-2.10;87.51
21742;BME280;11033;47.490;11.116;2022-12-11T03:45:54;92203.56;;;-2.02;87.20
21742;BME280;11033;47.490;11.116;2022-12-11T03:48:20;92216.47;;;-2.21;87.64
21742;BME280;11033;47.490;11.116;2022-12-11T03:50:46;92219.88;;;-2.20;87.53
21742;BME280;11033;47.490;11.116;2022-12-11T03:53:13;92215.41;;;-2.18;87.10
21742;BME280;11033;47.490;11.116;2022-12-11T03:55:40;92223.81;;;-2.16;87.28
21742;BME280;11033;47.490;11.116;2022-12-11T03:58:05;92225.59;;;-2.27;87.08
21742;BME280;11033;47.490;11.116;2022-12-11T04:00:31;92220.81;;;-2.12;87.07
21742;BME280;11033;47.490;11.116;2022-12-11T04:02:57;92210.50;;;-2.12;87.18
21742;BME280;11033;47.490;11.116;2022-12-11T04:05:37;92216.88;;;-2.16;86.88
21742;BME280;11033;47.490;11.116;2022-12-11T04:08:03;92219.88;;;-2.11;86.60
21742;BME280;11033;47.490;11.116;2022-12-11T04:10:28;92218.25;;;-2.31;87.67
21742;BME280;11033;47.490;11.116;2022-12-11T04:12:54;92220.16;;;-2.24;87.30
21742;BME280;11033;47.490;11.116;2022-12-11T04:15:19;92223.97;;;-2.37;87.36
21742;BME280;11033;47.490;11.116;2022-12-11T04:17:44;92215.13;;;-2.25;86.79
21742;BME280;11033;47.490;11.116;2022-12-11T04:20:28;92213.78;;;-2.39;85.93
21742;BME280;11033;47.490;11.116;2022-12-11T04:23:14;92215.28;;;-2.56;86.57
21742;BME280;11033;47.490;11.116;2022-12-11T04:26:06;92206.31;;;-2.71;86.97
21742;BME280;11033;47.490;11.116;2022-12-11T04:28:33;92210.53;;;-2.50;86.50
21742;BME280;11033;47.490;11.116;2022-12-11T04:30:59;92210.13;;;-2.56;85.94
21742;BME280;11033;47.490;11.116;2022-12-11T04:33:24;92206.34;;;-2.51;85.99
21742;BME280;11033;47.490;11.116;2022-12-11T04:35:50;92204.31;;;-2.48;86.31
21742;BME280;11033;47.490;11.116;2022-12-11T04:38:15;92198.88;;;-2.54;86.67
21742;BME280;11033;47.490;11.116;2022-12-11T04:40:40;92207.44;;;-2.54;86.97
21742;BME280;11033;47.490;11.116;2022-12-11T04:43:06;92203.88;;;-2.43;86.47
21742;BME280;11033;47.490;11.116;2022-12-11T04:45:31;92204.97;;;-2.46;86.20
21742;BME280;11033;47.490;11.116;2022-12-11T04:47:56;92216.38;;;-2.58;87.07
21742;BME280;11033;47.490;11.116;2022-12-11T04:50:22;92216.66;;;-2.51;86.89
21742;BME280;11033;47.490;11.116;2022-12-11T04:52:47;92209.31;;;-2.56;86.87
21742;BME280;11033;47.490;11.116;2022-12-11T04:55:12;92214.22;;;-2.53;87.51
21742;BME280;11033;47.490;11.116;2022-12-11T04:57:38;92211.91;;;-2.46;86.99
21742;BME280;11033;47.490;11.116;2022-12-11T05:00:05;92209.59;;;-2.49;87.30
21742;BME280;11033;47.490;11.116;2022-12-11T05:02:34;92209.47;;;-2.48;87.31
21742;BME280;11033;47.490;11.116;2022-12-11T05:05:00;92204.84;;;-2.44;86.90
21742;BME280;11033;47.490;11.116;2022-12-11T05:07:25;92213.25;;;-2.42;87.26
21742;BME280;11033;47.490;11.116;2022-12-11T05:09:50;92211.63;;;-2.53;87.19
21742;BME280;11033;47.490;11.116;2022-12-11T05:12:16;92211.22;;;-2.48;87.65
21742;BME280;11033;47.490;11.116;2022-12-11T05:14:41;92206.06;;;-2.48;87.40
21742;BME280;11033;47.490;11.116;2022-12-11T05:17:06;92210.53;;;-2.31;86.67
21742;BME280;11033;47.490;11.116;2022-12-11T05:19:32;92205.66;;;-2.34;86.40
21742;BME280;11033;47.490;11.116;2022-12-11T05:21:57;92199.81;;;-2.36;86.37
21742;BME280;11033;47.490;11.116;2022-12-11T05:24:22;92202.25;;;-2.44;86.71
21742;BME280;11033;47.490;11.116;2022-12-11T05:26:47;92209.59;;;-2.49;86.82
21742;BME280;11033;47.490;11.116;2022-12-11T05:29:13;92206.88;;;-2.38;86.48
21742;BME280;11033;47.490;11.116;2022-12-11T05:31:38;92203.63;;;-2.40;87.05
21742;BME280;11033;47.490;11.116;2022-12-11T05:34:03;92196.69;;;-2.40;86.69
21742;BME280;11033;47.490;11.116;2022-12-11T05:36:32;92196.84;;;-2.51;87.33
21742;BME280;11033;47.490;11.116;2022-12-11T05:38:58;92199.56;;;-2.43;87.47
21742;BME280;11033;47.490;11.116;2022-12-11T05:41:25;92205.78;;;-2.45;86.82
21742;BME280;11033;47.490;11.116;2022-12-11T05:43:51;92204.56;;;-2.41;86.73
21742;BME280;11033;47.490;11.116;2022-12-11T05:46:25;92206.88;;;-2.38;86.77
21742;BME280;11033;47.490;11.116;2022-12-11T05:48:57;92202.66;;;-2.39;87.39
21742;BME280;11033;47.490;11.116;2022-12-11T05:51:23;92210.13;;;-2.46;87.16
21742;BME280;11033;47.490;11.116;2022-12-11T05:53:50;92210.28;;;-2.47;87.15
21742;BME280;11033;47.490;11.116;2022-12-11T05:56:21;92204.28;;;-2.38;86.96
21742;BME280;11033;47.490;11.116;2022-12-11T05:58:47;92196.84;;;-2.51;86.54
21742;BME280;11033;47.490;11.116;2022-12-11T06:01:19;92203.34;;;-2.47;86.74
21742;BME280;11033;47.490;11.116;2022-12-11T06:03:44;92196.84;;;-2.41;86.74
21742;BME280;11033;47.490;11.116;2022-12-11T06:06:10;92196.72;;;-2.49;86.37
21742;BME280;11033;47.490;11.116;2022-12-11T06:08:36;92191.41;;;-2.48;86.65
21742;BME280;11033;47.490;11.116;2022-12-11T06:11:03;92191.41;;;-2.48;86.63
21742;BME280;11033;47.490;11.116;2022-12-11T06:13:29;92191.66;;;-2.61;86.93
21742;BME280;11033;47.490;11.116;2022-12-11T06:15:59;92181.91;;;-2.47;86.55
21742;BME280;11033;47.490;11.116;2022-12-11T06:18:24;92188.84;;;-2.48;86.51
21742;BME280;11033;47.490;11.116;2022-12-11T06:20:50;92177.16;;;-2.42;86.22
21742;BME280;11033;47.490;11.116;2022-12-11T06:23:15;92178.38;;;-2.46;86.32
21742;BME280;11033;47.490;11.116;2022-12-11T06:25:40;92182.47;;;-2.53;86.57
21742;BME280;11033;47.490;11.116;2022-12-11T06:28:06;92182.88;;;-2.48;86.37
21742;BME280;11033;47.490;11.116;2022-12-11T06:30:31;92175.53;;;-2.72;86.60
21742;BME280;11033;47.490;11.116;2022-12-11T06:32:57;92182.19;;;-2.50;86.50
21742;BME280;11033;47.490;11.116;2022-12-11T06:35:23;92178.66;;;-2.49;86.59
21742;BME280;11033;47.490;11.116;2022-12-11T06:37:48;92180.84;;;-2.54;86.37
21742;BME280;11033;47.490;11.116;2022-12-11T06:40:14;92186.53;;;-2.51;86.53
21742;BME280;11033;47.490;11.116;2022-12-11T06:42:40;92183.28;;;-2.43;86.56
21742;BME280;11033;47.490;11.116;2022-12-11T06:45:05;92177.59;;;-2.57;86.86
21742;BME280;11033;47.490;11.116;2022-12-11T06:47:31;92194.13;;;-2.49;86.57
21742;BME280;11033;47.490;11.116;2022-12-11T06:49:57;92190.59;;;-2.48;86.64
21742;BME280;11033;47.490;11.116;2022-12-11T06:52:24;92195.22;;;-2.42;86.54
21742;BME280;11033;47.490;11.116;2022-12-11T06:54:51;92200.09;;;-2.39;86.15
21742;BME280;11033;47.490;11.116;2022-12-11T06:57:17;92204.44;;;-2.40;86.64
21742;BME280;11033;47.490;11.116;2022-12-11T06:59:42;92209.03;;;-2.43;86.70
21742;BME280;11033;47.490;11.116;2022-12-11T07:02:16;92207.69;;;-2.47;86.94
21742;BME280;11033;47.490;11.116;2022-12-11T07:04:42;92210.94;;;-2.45;86.83
21742;BME280;11033;47.490;11.116;2022-12-11T07:07:08;92205.66;;;-2.53;87.00
21742;BME280;11033;47.490;11.116;2022-12-11T07:09:33;92203.63;;;-2.60;87.17
21742;BME280;11033;47.490;11.116;2022-12-11T07:11:59;92207.97;;;-2.50;86.82
21742;BME280;11033;47.490;11.116;2022-12-11T07:14:24;92207.97;;;-2.50;87.25
21742;BME280;11033;47.490;11.116;2022-12-11T07:16:49;92199.16;;;-2.58;87.10
21742;BME280;11033;47.490;11.116;2022-12-11T07:19:15;92201.47;;;-2.54;86.77
21742;BME280;11033;47.490;11.116;2022-12-11T07:21:40;92211.19;;;-2.68;87.44
21742;BME280;11033;47.490;11.116;2022-12-11T07:24:06;92210.66;;;-2.62;87.10
21742;BME280;11033;47.490;11.116;2022-12-11T07:26:32;92209.47;;;-2.58;87.23
21742;BME280;11033;47.490;11.116;2022-12-11T07:28:58;92216.50;;;-2.50;87.00
21742;BME280;11033;47.490;11.116;2022-12-11T07:31:26;92215.28;;;-2.46;86.94
21742;BME280;11033;47.490;11.116;2022-12-11T07:33:53;92225.34;;;-2.52;86.96
21742;BME280;11033;47.490;11.116;2022-12-11T07:36:19;92223.69;;;-2.53;86.80
21742;BME280;11033;47.490;11.116;2022-12-11T07:38:44;92214.19;;;-2.63;86.97
21742;BME280;11033;47.490;11.116;2022-12-11T07:41:12;92217.19;;;-2.58;86.45
21742;BME280;11033;47.490;11.116;2022-12-11T07:43:39;92220.69;;;-2.68;85.02
21742;BME280;11033;47.490;11.116;2022-12-11T07:46:07;92219.19;;;-2.71;84.68
21742;BME280;11033;47.490;11.116;2022-12-11T07:48:37;92212.41;;;-2.62;84.49
21742;BME280;11033;47.490;11.116;2022-12-11T07:51:10;92212.28;;;-2.61;84.71
21742;BME280;11033;47.490;11.116;2022-12-11T07:53:39;92209.84;;;-2.62;84.43
21742;BME280;11033;47.490;11.116;2022-12-11T07:56:05;92215.28;;;-2.56;84.61
21742;BME280;11033;47.490;11.116;2022-12-11T07:58:30;92224.22;;;-2.79;83.04
21742;BME280;11033;47.490;11.116;2022-12-11T08:00:55;92229.81;;;-2.54;83.95
21742;BME280;11033;47.490;11.116;2022-12-11T08:03:22;92222.06;;;-2.54;83.88
21742;BME280;11033;47.490;11.116;2022-12-11T08:05:49;92228.16;;;-2.65;83.40
21742;BME280;11033;47.490;11.116;2022-12-11T08:08:15;92228.44;;;-2.59;82.87
21742;BME280;11033;47.490;11.116;2022-12-11T08:10:40;92239.44;;;-2.47;83.18
21742;BME280;11033;47.490;11.116;2022-12-11T08:13:06;92235.09;;;-2.46;82.92
21742;BME280;11033;47.490;11.116;2022-12-11T08:15:31;92235.63;;;-2.43;83.08
21742;BME280;11033;47.490;11.116;2022-12-11T08:17:57;92231.16;;;-2.41;82.78
21742;BME280;11033;47.490;11.116;2022-12-11T08:20:23;92232.25;;;-2.34;83.03
21742;BME280;11033;47.490;11.116;2022-12-11T08:22:48;92235.34;;;-2.30;82.37
21742;BME280;11033;47.490;11.116;2022-12-11T08:25:14;92226.13;;;-2.23;82.28
21742;BME280;11033;47.490;11.116;2022-12-11T08:27:39;92226.53;;;-2.18;82.15
21742;BME280;11033;47.490;11.116;2022-12-11T08:30:05;92231.97;;;-2.21;81.00
21742;BME280;11033;47.490;11.116;2022-12-11T08:32:30;92226.69;;;-2.39;80.69
21742;BME280;11033;47.490;11.116;2022-12-11T08:34:55;92225.72;;;-2.18;81.59
21742;BME280;11033;47.490;11.116;2022-12-11T08:37:21;92224.19;;;-2.02;81.85
21742;BME280;11033;47.490;11.116;2022-12-11T08:39:46;92232.63;;;-2.19;81.41
21742;BME280;11033;47.490;11.116;2022-12-11T08:42:11;92233.97;;;-2.15;81.40
21742;BME280;11033;47.490;11.116;2022-12-11T08:44:36;92230.31;;;-2.03;80.90
21742;BME280;11033;47.490;11.116;2022-12-11T08:47:02;92235.31;;;-2.01;81.24
21742;BME280;11033;47.490;11.116;2022-12-11T08:49:27;92240.63;;;-1.93;81.38
21742;BME280;11033;47.490;11.116;2022-12-11T08:51:52;92238.03;;;-2.03;81.30
21742;BME280;11033;47.490;11.116;2022-12-11T08:54:18;92236.28;;;-2.02;80.89
21742;BME280;11033;47.490;11.116;2022-12-11T08:56:44;92235.03;;;-1.98;81.45
21742;BME280;11033;47.490;11.116;2022-12-11T08:59:09;92231.34;;;-1.76;80.56
21742;BME280;11033;47.490;11.116;2022-12-11T09:01:34;92231.56;;;-1.60;80.03
21742;BME280;11033;47.490;11.116;2022-12-11T09:04:00;92239.31;;;-1.60;79.50
21742;BME280;11033;47.490;11.116;2022-12-11T09:06:27;92238.13;;;-1.75;78.76
21742;BME280;11033;47.490;11.116;2022-12-11T09:08:53;92248.06;;;-1.80;79.08
21742;BME280;11033;47.490;11.116;2022-12-11T09:11:25;92244.75;;;-1.63;79.79
21742;BME280;11033;47.490;11.116;2022-12-11T09:13:51;92250.72;;;-1.53;79.31
21742;BME280;11033;47.490;11.116;2022-12-11T09:16:19;92246.09;;;-1.59;77.87
21742;BME280;11033;47.490;11.116;2022-12-11T09:18:49;92241.97;;;-1.79;76.04
21742;BME280;11033;47.490;11.116;2022-12-11T09:21:17;92243.13;;;-1.64;76.11
21742;BME280;11033;47.490;11.116;2022-12-11T09:23:43;92244.66;;;-1.34;76.36
21742;BME280;11033;47.490;11.116;2022-12-11T09:26:12;92236.41;;;-1.10;74.68
21742;BME280;11033;47.490;11.116;2022-12-11T09:28:38;92241.94;;;-1.23;74.92
21742;BME280;11033;47.490;11.116;2022-12-11T09:31:11;92235.72;;;-0.85;73.50
21742;BME280;11033;47.490;11.116;2022-12-11T09:33:37;92232.78;;;-0.72;73.45
21742;BME280;11033;47.490;11.116;2022-12-11T09:36:03;92231.22;;;-0.55;74.13
21742;BME280;11033;47.490;11.116;2022-12-11T09:38:30;92234.97;;;-0.50;72.06
21742;BME280;11033;47.490;11.116;2022-12-11T09:40:56;92239.81;;;-0.82;72.51
21742;BME280;11033;47.490;11.116;2022-12-11T09:43:43;92237.81;;;-1.16;71.77
21742;BME280;11033;47.490;11.116;2022-12-11T09:46:12;92230.38;;;-1.01;72.75
21742;BME280;11033;47.490;11.116;2022-12-11T09:48:45;92218.84;;;-0.08;71.33
21742;BME280;11033;47.490;11.116;2022-12-11T09:53:48;92211.22;;;0.94;67.92
21742;BME280;11033;47.490;11.116;2022-12-11T09:56:27;92211.94;;;1.79;68.54
21742;BME280;11033;47.490;11.116;2022-12-11T10:02:02;92197.13;;;3.78;63.38
21742;BME280;11033;47.490;11.116;2022-12-11T10:10:40;92182.63;;;5.98;54.20
21742;BME280;11033;47.490;11.116;2022-12-11T10:13:36;92173.09;;;7.17;55.06
21742;BME280;11033;47.490;11.116;2022-12-11T10:16:32;92174.13;;;6.39;49.93
21742;BME280;11033;47.490;11.116;2022-12-11T10:18:59;92167.97;;;7.09;55.08
21742;BME280;11033;47.490;11.116;2022-12-11T10:21:25;92172.75;;;6.64;51.57
21742;BME280;11033;47.490;11.116;2022-12-11T10:23:58;92164.75;;;8.15;50.07
21742;BME280;11033;47.490;11.116;2022-12-11T10:26:27;92158.53;;;6.02;49.02
21742;BME280;11033;47.490;11.116;2022-12-11T10:28:57;92155.50;;;6.76;50.73
21742;BME280;11033;47.490;11.116;2022-12-11T10:34:03;92145.03;;;6.76;50.10
21742;BME280;11033;47.490;11.116;2022-12-11T10:36:40;92156.19;;;5.35;52.79
21742;BME280;11033;47.490;11.116;2022-12-11T10:39:17;92150.47;;;4.14;53.57
21742;BME280;11033;47.490;11.116;2022-12-11T10:41:45;92144.84;;;4.40;51.15
21742;BME280;11033;47.490;11.116;2022-12-11T10:47:20;92140.44;;;5.29;50.95
21742;BME280;11033;47.490;11.116;2022-12-11T10:49:56;92139.00;;;5.12;54.00
21742;BME280;11033;47.490;11.116;2022-12-11T10:52:28;92148.34;;;4.32;54.51
21742;BME280;11033;47.490;11.116;2022-12-11T10:55:02;92137.13;;;3.94;56.11
21742;BME280;11033;47.490;11.116;2022-12-11T10:57:32;92134.97;;;3.52;55.87
21742;BME280;11033;47.490;11.116;2022-12-11T10:59:58;92134.91;;;3.06;57.58
21742;BME280;11033;47.490;11.116;2022-12-11T11:02:27;92139.31;;;2.67;57.77
21742;BME280;11033;47.490;11.116;2022-12-11T11:04:56;92134.97;;;2.43;57.56
21742;BME280;11033;47.490;11.116;2022-12-11T11:07:28;92130.31;;;2.22;59.06
21742;BME280;11033;47.490;11.116;2022-12-11T11:10:23;92134.41;;;1.68;59.10
21742;BME280;11033;47.490;11.116;2022-12-11T11:12:58;92139.09;;;1.48;60.91
21742;BME280;11033;47.490;11.116;2022-12-11T11:15:26;92131.59;;;1.28;60.67
21742;BME280;11033;47.490;11.116;2022-12-11T11:17:54;92130.13;;;1.18;60.62
21742;BME280;11033;47.490;11.116;2022-12-11T11:20:23;92122.44;;;0.84;61.20
21742;BME280;11033;47.490;11.116;2022-12-11T11:22:52;92126.75;;;0.67;62.29
21742;BME280;11033;47.490;11.116;2022-12-11T11:25:21;92119.09;;;0.23;61.87
21742;BME280;11033;47.490;11.116;2022-12-11T11:27:55;92121.72;;;0.31;63.07
21742;BME280;11033;47.490;11.116;2022-12-11T11:30:26;92114.53;;;0.51;63.01
21742;BME280;11033;47.490;11.116;2022-12-11T11:32:57;92113.66;;;0.01;64.03
21742;BME280;11033;47.490;11.116;2022-12-11T11:35:27;92110.88;;;0.28;63.60
21742;BME280;11033;47.490;11.116;2022-12-11T11:38:16;92114.53;;;-0.09;63.42
21742;BME280;11033;47.490;11.116;2022-12-11T11:43:46;92103.56;;;0.23;64.36
21742;BME280;11033;47.490;11.116;2022-12-11T11:46:13;92101.50;;;0.35;64.07
21742;BME280;11033;47.490;11.116;2022-12-11T11:48:52;92101.09;;;0.14;64.26
21742;BME280;11033;47.490;11.116;2022-12-11T11:51:38;92102.81;;;0.39;63.52
21742;BME280;11033;47.490;11.116;2022-12-11T11:54:23;92108.34;;;0.44;63.88
21742;BME280;11033;47.490;11.116;2022-12-11T11:56:50;92099.97;;;0.58;64.10
21742;BME280;11033;47.490;11.116;2022-12-11T11:59:41;92098.94;;;0.77;64.56
21742;BME280;11033;47.490;11.116;2022-12-11T12:02:17;92098.84;;;1.19;62.88
21742;BME280;11033;47.490;11.116;2022-12-11T12:04:45;92095.88;;;0.90;62.65
21742;BME280;11033;47.490;11.116;2022-12-11T12:07:25;92100.44;;;1.04;63.57
21742;BME280;11033;47.490;11.116;2022-12-11T12:23:29;92098.13;;;0.43;63.15
21742;BME280;11033;47.490;11.116;2022-12-11T12:26:08;92086.53;;;0.13;64.32
21742;BME280;11033;47.490;11.116;2022-12-11T12:28:50;92093.63;;;0.11;64.45
21742;BME280;11033;47.490;11.116;2022-12-11T12:36:48;92085.34;;;0.83;64.77
21742;BME280;11033;47.490;11.116;2022-12-11T12:42:10;92079.69;;;0.96;64.53
21742;BME280;11033;47.490;11.116;2022-12-11T12:44:47;92081.69;;;1.43;64.17
21742;BME280;11033;47.490;11.116;2022-12-11T12:47:16;92074.88;;;1.58;62.72
21742;BME280;11033;47.490;11.116;2022-12-11T12:49:47;92072.25;;;1.82;61.67
21742;BME280;11033;47.490;11.116;2022-12-11T12:52:30;92067.97;;;2.22;62.57
21742;BME280;11033;47.490;11.116;2022-12-11T12:54:59;92071.59;;;5.51;55.46
21742;BME280;11033;47.490;11.116;2022-12-11T12:58:03;92072.69;;;3.88;59.83
21742;BME280;11033;47.490;11.116;2022-12-11T13:00:39;92068.50;;;3.18;60.34
21742;BME280;11033;47.490;11.116;2022-12-11T13:03:23;92069.56;;;3.01;61.02
21742;BME280;11033;47.490;11.116;2022-12-11T13:06:00;92072.38;;;3.23;61.62
21742;BME280;11033;47.490;11.116;2022-12-11T13:08:28;92074.97;;;3.68;60.69
21742;BME280;11033;47.490;11.116;2022-12-11T13:11:02;92072.28;;;3.39;61.36
21742;BME280;11033;47.490;11.116;2022-12-11T13:18:43;92071.72;;;3.29;60.42
21742;BME280;11033;47.490;11.116;2022-12-11T13:21:32;92074.81;;;2.62;61.85
21742;BME280;11033;47.490;11.116;2022-12-11T13:24:44;92070.75;;;2.68;61.22
21742;BME280;11033;47.490;11.116;2022-12-11T13:27:21;92070.91;;;2.58;62.22
21742;BME280;11033;47.490;11.116;2022-12-11T13:29:47;92074.31;;;2.59;59.99
21742;BME280;11033;47.490;11.116;2022-12-11T13:34:39;92070.94;;;2.89;60.14
21742;BME280;11033;47.490;11.116;2022-12-11T13:37:22;92075.16;;;2.12;60.75
21742;BME280;11033;47.490;11.116;2022-12-11T13:39:49;92072.59;;;1.79;61.33
21742;BME280;11033;47.490;11.116;2022-12-11T13:42:34;92075.44;;;2.17;61.67
21742;BME280;11033;47.490;11.116;2022-12-11T13:45:00;92070.63;;;1.81;60.65
21742;BME280;11033;47.490;11.116;2022-12-11T13:47:27;92076.97;;;1.79;61.91
21742;BME280;11033;47.490;11.116;2022-12-11T13:49:54;92079.75;;;1.53;60.51
21742;BME280;11033;47.490;11.116;2022-12-11T13:52:23;92080.25;;;1.48;60.68
21742;BME280;11033;47.490;11.116;2022-12-11T13:54:53;92081.34;;;1.21;61.53
21742;BME280;11033;47.490;11.116;2022-12-11T13:57:24;92088.78;;;1.24;60.60
21742;BME280;11033;47.490;11.116;2022-12-11T13:59:53;92081.66;;;1.26;61.51
21742;BME280;11033;47.490;11.116;2022-12-11T14:02:22;92079.06;;;1.18;61.77